createdAt,value
2018-05-23T00:00:24.451Z,954.65
2018-05-23T00:01:24.506Z,954.66
2018-05-23T00:02:24.499Z,954.7
2018-05-23T00:03:24.523Z,954.76
2018-05-23T00:04:24.546Z,954.73
2018-05-23T00:05:24.571Z,954.76
2018-05-23T00:06:24.598Z,954.8
2018-05-23T00:07:24.669Z,954.8
2018-05-23T00:08:24.642Z,954.81
2018-05-23T00:09:24.666Z,954.84
2018-05-23T00:10:24.689Z,954.87
2018-05-23T00:11:24.715Z,954.83
2018-05-23T00:12:24.738Z,954.85
2018-05-23T00:13:24.762Z,954.84
2018-05-23T00:14:24.791Z,954.83
2018-05-23T00:15:24.809Z,954.83
2018-05-23T00:16:24.834Z,954.81
2018-05-23T00:17:24.857Z,954.8
2018-05-23T00:18:24.882Z,954.79
2018-05-23T00:19:24.905Z,954.79
2018-05-23T00:20:24.930Z,954.71
2018-05-23T00:21:24.957Z,954.74
2018-05-23T00:22:25.028Z,954.77
2018-05-23T00:23:24.999Z,954.75
2018-05-23T00:24:25.028Z,954.73
2018-05-23T00:25:25.047Z,954.69
2018-05-23T00:26:25.082Z,954.79
2018-05-23T00:27:25.097Z,954.74
2018-05-23T00:28:25.118Z,954.74
2018-05-23T00:29:25.140Z,954.71
2018-05-23T00:30:25.164Z,954.69
2018-05-23T00:31:25.188Z,954.7
2018-05-23T00:32:25.213Z,954.73
2018-05-23T00:33:25.235Z,954.72
2018-05-23T00:34:25.258Z,954.69
2018-05-23T00:35:25.280Z,954.72
2018-05-23T00:36:25.304Z,954.73
2018-05-23T00:37:25.377Z,954.74
2018-05-23T00:38:25.346Z,954.7
2018-05-23T00:39:25.371Z,954.73
2018-05-23T00:40:25.394Z,954.75
2018-05-23T00:41:25.417Z,954.7
2018-05-23T00:42:25.440Z,954.7
2018-05-23T00:43:25.463Z,954.71
2018-05-23T00:44:25.487Z,954.69
2018-05-23T00:45:25.512Z,954.66
2018-05-23T00:46:25.535Z,954.72
2018-05-23T00:47:25.558Z,954.7
2018-05-23T00:48:25.582Z,954.67
2018-05-23T00:49:25.608Z,954.69
2018-05-23T00:50:25.631Z,954.68
2018-05-23T00:51:25.655Z,954.7
2018-05-23T00:52:25.730Z,954.7
2018-05-23T00:53:25.702Z,954.72
2018-05-23T00:54:25.727Z,954.7
2018-05-23T00:55:25.749Z,954.74
2018-05-23T00:56:25.773Z,954.7
2018-05-23T00:57:25.805Z,954.7
2018-05-23T00:58:25.828Z,954.75
2018-05-23T00:59:25.842Z,954.74
2018-05-23T01:00:25.867Z,954.76
2018-05-23T01:01:25.898Z,954.73
2018-05-23T01:02:25.915Z,954.75
2018-05-23T01:03:25.938Z,954.74
2018-05-23T01:04:25.960Z,954.78
2018-05-23T01:05:25.984Z,954.76
2018-05-23T01:06:26.008Z,954.74
2018-05-23T01:07:26.182Z,954.74
2018-05-23T01:08:26.057Z,954.74
2018-05-23T01:09:26.078Z,954.76
2018-05-23T01:10:26.101Z,954.79
2018-05-23T01:11:26.124Z,954.79
2018-05-23T01:12:26.149Z,954.79
2018-05-23T01:13:26.172Z,954.77
2018-05-23T01:14:26.197Z,954.81
2018-05-23T01:15:26.220Z,954.82
2018-05-23T01:16:26.243Z,954.87
2018-05-23T01:17:26.366Z,954.88
2018-05-23T01:18:26.289Z,954.9
2018-05-23T01:19:26.313Z,954.94
2018-05-23T01:20:26.336Z,954.9
2018-05-23T01:21:26.360Z,954.94
2018-05-23T01:22:26.438Z,954.98
2018-05-23T01:23:26.408Z,955.01
2018-05-23T01:24:26.431Z,955.01
2018-05-23T01:25:26.453Z,955.02
2018-05-23T01:26:26.478Z,955.05
2018-05-23T01:27:26.501Z,955.07
2018-05-23T01:28:26.523Z,955.06
2018-05-23T01:29:26.547Z,955.05
2018-05-23T01:30:26.571Z,955.05
2018-05-23T01:31:26.608Z,955.04
2018-05-23T01:32:26.617Z,955.06
2018-05-23T01:33:26.641Z,955.08
2018-05-23T01:34:26.664Z,955.1
2018-05-23T01:35:26.688Z,955.1
2018-05-23T01:36:26.716Z,955.09
2018-05-23T01:37:26.783Z,955.06
2018-05-23T01:38:26.756Z,955.11
2018-05-23T01:39:26.779Z,955.11
2018-05-23T01:40:26.803Z,955.16
2018-05-23T01:41:26.828Z,955.17
2018-05-23T01:42:26.856Z,955.21
2018-05-23T01:43:26.874Z,955.19
2018-05-23T01:44:26.894Z,955.21
2018-05-23T01:45:26.918Z,955.24
2018-05-23T01:46:26.942Z,955.19
2018-05-23T01:47:26.964Z,955.23
2018-05-23T01:48:26.986Z,955.28
2018-05-23T01:49:27.009Z,955.29
2018-05-23T01:50:27.032Z,955.3
2018-05-23T01:51:27.055Z,955.25
2018-05-23T01:52:27.127Z,955.29
2018-05-23T01:53:27.099Z,955.3
2018-05-23T01:54:27.121Z,955.25
2018-05-23T01:55:27.143Z,955.28
2018-05-23T01:56:27.167Z,955.21
2018-05-23T01:57:27.193Z,955.22
2018-05-23T01:58:27.215Z,955.2
2018-05-23T01:59:27.245Z,955.21
2018-05-23T02:00:27.260Z,955.22
2018-05-23T02:01:27.288Z,955.24
2018-05-23T02:02:27.306Z,955.22
2018-05-23T02:03:27.328Z,955.22
2018-05-23T02:04:27.352Z,955.24
2018-05-23T02:05:27.374Z,955.26
2018-05-23T02:06:27.398Z,955.22
2018-05-23T02:07:27.471Z,955.2
2018-05-23T02:08:27.442Z,955.24
2018-05-23T02:09:27.465Z,955.25
2018-05-23T02:10:27.489Z,955.22
2018-05-23T02:11:27.511Z,955.18
2018-05-23T02:12:27.534Z,955.2
2018-05-23T02:13:27.557Z,955.2
2018-05-23T02:14:27.579Z,955.19
2018-05-23T02:15:27.606Z,955.23
2018-05-23T02:16:27.630Z,955.22
2018-05-23T02:17:27.651Z,955.23
2018-05-23T02:18:27.672Z,955.25
2018-05-23T02:19:27.696Z,955.24
2018-05-23T02:20:27.720Z,955.27
2018-05-23T02:21:27.743Z,955.3
2018-05-23T02:22:29.017Z,955.3
2018-05-23T02:23:27.788Z,955.34
2018-05-23T02:24:27.812Z,955.31
2018-05-23T02:25:27.833Z,955.33
2018-05-23T02:26:27.857Z,955.34
2018-05-23T02:27:27.879Z,955.32
2018-05-23T02:28:27.903Z,955.37
2018-05-23T02:29:27.934Z,955.3
2018-05-23T02:30:27.965Z,955.38
2018-05-23T02:31:27.978Z,955.33
2018-05-23T02:32:28.001Z,955.35
2018-05-23T02:33:28.021Z,955.37
2018-05-23T02:34:28.042Z,955.4
2018-05-23T02:35:28.066Z,955.34
2018-05-23T02:36:28.089Z,955.4
2018-05-23T02:37:28.113Z,955.37
2018-05-23T02:38:28.134Z,955.4
2018-05-23T02:39:28.160Z,955.43
2018-05-23T02:40:28.182Z,955.44
2018-05-23T02:41:28.204Z,955.47
2018-05-23T02:42:28.227Z,955.43
2018-05-23T02:43:28.252Z,955.43
2018-05-23T02:44:28.272Z,955.42
2018-05-23T02:45:28.297Z,955.4
2018-05-23T02:46:28.326Z,955.42
2018-05-23T02:47:28.342Z,955.45
2018-05-23T02:48:28.365Z,955.49
2018-05-23T02:49:28.387Z,955.54
2018-05-23T02:50:28.412Z,955.53
2018-05-23T02:51:28.434Z,955.53
2018-05-23T02:52:28.456Z,955.53
2018-05-23T02:53:28.480Z,955.55
2018-05-23T02:54:28.502Z,955.51
2018-05-23T02:55:28.528Z,955.62
2018-05-23T02:56:28.548Z,955.54
2018-05-23T02:57:28.573Z,955.58
2018-05-23T02:58:28.594Z,955.58
2018-05-23T02:59:28.617Z,955.6
2018-05-23T03:00:28.694Z,955.61
2018-05-23T03:01:28.675Z,955.64
2018-05-23T03:02:28.689Z,955.6
2018-05-23T03:03:28.711Z,955.62
2018-05-23T03:04:28.735Z,955.65
2018-05-23T03:05:28.757Z,955.64
2018-05-23T03:06:28.783Z,955.65
2018-05-23T03:07:28.803Z,955.62
2018-05-23T03:08:28.825Z,955.66
2018-05-23T03:09:28.849Z,955.68
2018-05-23T03:10:28.871Z,955.73
2018-05-23T03:11:28.894Z,955.69
2018-05-23T03:12:28.916Z,955.74
2018-05-23T03:13:28.939Z,955.74
2018-05-23T03:14:28.968Z,955.76
2018-05-23T03:15:28.986Z,955.72
2018-05-23T03:16:29.008Z,955.77
2018-05-23T03:17:29.034Z,955.74
2018-05-23T03:18:29.053Z,955.74
2018-05-23T03:19:29.075Z,955.74
2018-05-23T03:20:29.099Z,955.78
2018-05-23T03:21:29.121Z,955.78
2018-05-23T03:22:29.148Z,955.8
2018-05-23T03:23:29.168Z,955.8
2018-05-23T03:24:29.189Z,955.79
2018-05-23T03:25:29.210Z,955.8
2018-05-23T03:26:29.234Z,955.83
2018-05-23T03:27:29.258Z,955.8
2018-05-23T03:28:29.283Z,955.81
2018-05-23T03:29:29.302Z,955.81
2018-05-23T03:30:29.325Z,955.8
2018-05-23T03:31:29.351Z,955.81
2018-05-23T03:32:29.369Z,955.86
2018-05-23T03:33:29.394Z,955.87
2018-05-23T03:34:29.414Z,955.83
2018-05-23T03:35:29.436Z,955.92
2018-05-23T03:36:29.458Z,955.89
2018-05-23T03:37:29.486Z,955.89
2018-05-23T03:38:29.506Z,955.82
2018-05-23T03:39:29.525Z,955.9
2018-05-23T03:40:29.547Z,955.94
2018-05-23T03:41:29.569Z,955.93
2018-05-23T03:42:29.592Z,955.95
2018-05-23T03:43:29.615Z,955.96
2018-05-23T03:44:29.636Z,955.98
2018-05-23T03:45:29.660Z,955.99
2018-05-23T03:46:29.682Z,955.99
2018-05-23T03:47:29.706Z,955.96
2018-05-23T03:48:29.726Z,955.98
2018-05-23T03:49:29.748Z,956
2018-05-23T03:50:29.766Z,955.95
2018-05-23T03:51:29.789Z,955.99
2018-05-23T03:52:29.816Z,955.97
2018-05-23T03:53:29.838Z,956.01
2018-05-23T03:54:29.859Z,955.95
2018-05-23T03:55:29.897Z,955.99
2018-05-23T03:56:29.906Z,956.03
2018-05-23T03:57:29.928Z,956.04
2018-05-23T03:58:29.950Z,956.03
2018-05-23T03:59:29.972Z,956.06
2018-05-23T04:00:29.994Z,956.07
2018-05-23T04:01:30.022Z,956.05
2018-05-23T04:02:30.040Z,956.08
2018-05-23T04:03:30.063Z,956.06
2018-05-23T04:04:30.085Z,956.11
2018-05-23T04:05:30.107Z,956.08
2018-05-23T04:06:30.131Z,956.08
2018-05-23T04:07:30.151Z,956.07
2018-05-23T04:08:30.173Z,956.05
2018-05-23T04:09:30.199Z,956.05
2018-05-23T04:10:30.218Z,956.08
2018-05-23T04:11:30.244Z,956.07
2018-05-23T04:12:30.264Z,956.07
2018-05-23T04:13:30.286Z,956.06
2018-05-23T04:14:30.309Z,956.1
2018-05-23T04:15:30.389Z,956.1
2018-05-23T04:16:30.353Z,956.07
2018-05-23T04:17:30.376Z,956.07
2018-05-23T04:18:30.400Z,956.1
2018-05-23T04:19:30.423Z,956.04
2018-05-23T04:20:30.445Z,956.05
2018-05-23T04:21:30.470Z,956.12
2018-05-23T04:22:30.490Z,956.12
2018-05-23T04:23:30.514Z,956.15
2018-05-23T04:24:30.537Z,956.15
2018-05-23T04:25:30.559Z,956.15
2018-05-23T04:26:30.589Z,956.2
2018-05-23T04:27:30.606Z,956.2
2018-05-23T04:28:30.627Z,956.22
2018-05-23T04:29:30.653Z,956.25
2018-05-23T04:30:30.674Z,956.26
2018-05-23T04:31:30.696Z,956.26
2018-05-23T04:32:30.718Z,956.28
2018-05-23T04:33:30.741Z,956.27
2018-05-23T04:34:30.765Z,956.3
2018-05-23T04:35:30.787Z,956.28
2018-05-23T04:36:30.810Z,956.29
2018-05-23T04:37:30.835Z,956.28
2018-05-23T04:38:30.855Z,956.31
2018-05-23T04:39:30.879Z,956.31
2018-05-23T04:40:30.900Z,956.3
2018-05-23T04:41:30.924Z,956.32
2018-05-23T04:42:30.946Z,956.31
2018-05-23T04:43:30.969Z,956.35
2018-05-23T04:44:30.992Z,956.36
2018-05-23T04:45:31.016Z,956.36
2018-05-23T04:46:31.038Z,956.4
2018-05-23T04:47:31.063Z,956.41
2018-05-23T04:48:31.084Z,956.42
2018-05-23T04:49:31.123Z,956.41
2018-05-23T04:50:31.131Z,956.41
2018-05-23T04:51:31.151Z,956.45
2018-05-23T04:52:31.172Z,956.45
2018-05-23T04:53:31.194Z,956.46
2018-05-23T04:54:31.216Z,956.48
2018-05-23T04:55:31.246Z,956.47
2018-05-23T04:56:31.264Z,956.48
2018-05-23T04:57:31.285Z,956.48
2018-05-23T04:58:31.308Z,956.53
2018-05-23T04:59:31.330Z,956.53
2018-05-23T05:00:31.352Z,956.52
2018-05-23T05:01:31.383Z,956.51
2018-05-23T05:02:31.400Z,956.49
2018-05-23T05:03:31.424Z,956.54
2018-05-23T05:04:31.445Z,956.55
2018-05-23T05:05:31.468Z,956.57
2018-05-23T05:06:31.492Z,956.6
2018-05-23T05:07:31.515Z,956.58
2018-05-23T05:08:31.536Z,956.61
2018-05-23T05:09:31.560Z,956.64
2018-05-23T05:10:31.585Z,956.67
2018-05-23T05:11:31.605Z,956.66
2018-05-23T05:12:31.634Z,956.67
2018-05-23T05:13:31.663Z,956.68
2018-05-23T05:14:31.675Z,956.71
2018-05-23T05:15:31.695Z,956.76
2018-05-23T05:16:31.723Z,956.76
2018-05-23T05:17:31.742Z,956.75
2018-05-23T05:18:31.766Z,956.75
2018-05-23T05:19:31.787Z,956.76
2018-05-23T05:20:31.810Z,956.79
2018-05-23T05:21:31.835Z,956.78
2018-05-23T05:22:31.858Z,956.78
2018-05-23T05:23:31.878Z,956.79
2018-05-23T05:24:31.904Z,956.79
2018-05-23T05:25:31.929Z,956.81
2018-05-23T05:26:31.951Z,956.78
2018-05-23T05:27:31.975Z,956.81
2018-05-23T05:28:31.998Z,956.83
2018-05-23T05:29:32.021Z,956.83
2018-05-23T05:30:32.045Z,956.86
2018-05-23T05:31:32.069Z,956.88
2018-05-23T05:32:32.094Z,956.94
2018-05-23T05:33:32.116Z,956.88
2018-05-23T05:34:32.140Z,956.89
2018-05-23T05:35:32.173Z,956.87
2018-05-23T05:36:32.187Z,956.89
2018-05-23T05:37:32.210Z,956.87
2018-05-23T05:38:32.232Z,956.92
2018-05-23T05:39:32.256Z,956.92
2018-05-23T05:40:32.280Z,956.95
2018-05-23T05:41:32.301Z,956.96
2018-05-23T05:42:32.327Z,956.97
2018-05-23T05:43:32.350Z,956.96
2018-05-23T05:44:32.374Z,956.97
2018-05-23T05:45:32.398Z,956.97
2018-05-23T05:46:32.421Z,956.97
2018-05-23T05:47:32.444Z,956.97
2018-05-23T05:48:32.468Z,956.99
2018-05-23T05:49:32.490Z,957
2018-05-23T05:50:32.515Z,957.04
2018-05-23T05:51:32.556Z,957.04
2018-05-23T05:52:32.561Z,957.05
2018-05-23T05:53:32.673Z,957.03
2018-05-23T05:54:32.609Z,957.07
2018-05-23T05:55:32.632Z,957.09
2018-05-23T05:56:32.656Z,957.12
2018-05-23T05:57:32.679Z,957.15
2018-05-23T05:58:32.704Z,957.12
2018-05-23T05:59:32.726Z,957.15
2018-05-23T06:00:32.752Z,957.11
2018-05-23T06:01:32.777Z,957.11
2018-05-23T06:02:32.800Z,957.08
2018-05-23T06:03:32.822Z,957.12
2018-05-23T06:04:32.848Z,957.11
2018-05-23T06:05:32.871Z,957.12
2018-05-23T06:06:32.893Z,957.11
2018-05-23T06:07:32.918Z,957.14
2018-05-23T06:08:32.991Z,957.17
2018-05-23T06:09:32.989Z,957.14
2018-05-23T06:10:32.996Z,957.19
2018-05-23T06:11:33.013Z,957.19
2018-05-23T06:12:33.037Z,957.2
2018-05-23T06:13:33.061Z,957.22
2018-05-23T06:14:33.089Z,957.19
2018-05-23T06:15:33.110Z,957.21
2018-05-23T06:16:33.135Z,957.18
2018-05-23T06:17:33.157Z,957.24
2018-05-23T06:18:33.185Z,957.26
2018-05-23T06:19:33.206Z,957.23
2018-05-23T06:20:33.231Z,957.22
2018-05-23T06:21:33.254Z,957.27
2018-05-23T06:22:33.281Z,957.29
2018-05-23T06:23:33.351Z,957.31
2018-05-23T06:24:33.324Z,957.32
2018-05-23T06:25:33.350Z,957.33
2018-05-23T06:26:33.374Z,957.34
2018-05-23T06:27:33.395Z,957.36
2018-05-23T06:28:33.418Z,957.37
2018-05-23T06:29:33.445Z,957.42
2018-05-23T06:30:33.471Z,957.37
2018-05-23T06:31:33.495Z,957.39
2018-05-23T06:32:33.518Z,957.41
2018-05-23T06:33:33.596Z,957.37
2018-05-23T06:34:33.567Z,957.39
2018-05-23T06:35:33.593Z,957.41
2018-05-23T06:36:33.619Z,957.39
2018-05-23T06:37:33.639Z,957.41
2018-05-23T06:38:33.713Z,957.39
2018-05-23T06:39:33.684Z,957.37
2018-05-23T06:40:33.714Z,957.38
2018-05-23T06:41:33.734Z,957.38
2018-05-23T06:42:33.759Z,957.38
2018-05-23T06:43:33.808Z,957.39
2018-05-23T06:44:33.806Z,957.37
2018-05-23T06:45:33.875Z,957.4
2018-05-23T06:46:33.855Z,957.39
2018-05-23T06:47:33.879Z,957.4
2018-05-23T06:48:33.902Z,957.42
2018-05-23T06:49:33.930Z,957.41
2018-05-23T06:50:33.954Z,957.45
2018-05-23T06:51:33.978Z,957.41
2018-05-23T06:52:34.003Z,957.46
2018-05-23T06:53:34.080Z,957.46
2018-05-23T06:54:34.051Z,957.5
2018-05-23T06:55:34.077Z,957.45
2018-05-23T06:56:34.101Z,957.47
2018-05-23T06:57:34.125Z,957.5
2018-05-23T06:58:34.150Z,957.48
2018-05-23T06:59:34.175Z,957.53
2018-05-23T07:00:34.203Z,957.49
2018-05-23T07:01:34.225Z,957.53
2018-05-23T07:02:34.250Z,957.5
2018-05-23T07:03:34.275Z,957.56
2018-05-23T07:04:34.300Z,957.52
2018-05-23T07:05:34.326Z,957.51
2018-05-23T07:06:34.438Z,957.56
2018-05-23T07:07:34.379Z,957.51
2018-05-23T07:08:35.702Z,957.49
2018-05-23T07:09:34.432Z,957.55
2018-05-23T07:10:34.451Z,957.54
2018-05-23T07:11:34.475Z,957.54
2018-05-23T07:12:34.500Z,957.61
2018-05-23T07:13:34.525Z,957.58
2018-05-23T07:14:34.551Z,957.6
2018-05-23T07:15:34.576Z,957.57
2018-05-23T07:16:34.601Z,957.57
2018-05-23T07:17:34.653Z,957.59
2018-05-23T07:18:34.652Z,957.58
2018-05-23T07:19:34.676Z,957.59
2018-05-23T07:20:34.703Z,957.59
2018-05-23T07:21:34.729Z,957.64
2018-05-23T07:22:34.754Z,957.63
2018-05-23T07:23:34.781Z,957.62
2018-05-23T07:24:34.808Z,957.65
2018-05-23T07:25:34.829Z,957.69
2018-05-23T07:26:34.853Z,957.69
2018-05-23T07:27:34.880Z,957.68
2018-05-23T07:28:34.904Z,957.71
2018-05-23T07:29:34.930Z,957.67
2018-05-23T07:30:34.953Z,957.71
2018-05-23T07:31:34.980Z,957.7
2018-05-23T07:32:35.005Z,957.77
2018-05-23T07:33:35.035Z,957.74
2018-05-23T07:34:35.055Z,957.75
2018-05-23T07:35:35.082Z,957.75
2018-05-23T07:36:35.106Z,957.73
2018-05-23T07:37:35.132Z,957.73
2018-05-23T07:38:35.157Z,957.7
2018-05-23T07:39:35.183Z,957.76
2018-05-23T07:40:35.208Z,957.77
2018-05-23T07:41:35.238Z,957.79
2018-05-23T07:42:35.260Z,957.76
2018-05-23T07:43:35.285Z,957.79
2018-05-23T07:44:35.313Z,957.8
2018-05-23T07:45:35.335Z,957.75
2018-05-23T07:46:35.365Z,957.77
2018-05-23T07:47:35.390Z,957.78
2018-05-23T07:48:35.415Z,957.8
2018-05-23T07:49:35.437Z,957.83
2018-05-23T07:50:35.465Z,957.76
2018-05-23T07:51:35.500Z,957.78
2018-05-23T07:52:35.516Z,957.71
2018-05-23T07:53:35.540Z,957.75
2018-05-23T07:54:35.572Z,957.76
2018-05-23T07:55:35.598Z,957.78
2018-05-23T07:56:35.704Z,957.77
2018-05-23T07:57:35.647Z,957.83
2018-05-23T07:58:35.672Z,957.85
2018-05-23T07:59:35.698Z,957.83
2018-05-23T08:00:35.725Z,957.87
2018-05-23T08:01:35.752Z,957.86
2018-05-23T08:02:35.778Z,957.83
2018-05-23T08:03:35.804Z,957.83
2018-05-23T08:04:35.829Z,957.82
2018-05-23T08:05:35.854Z,957.82
2018-05-23T08:06:35.880Z,957.8
2018-05-23T08:07:35.906Z,957.82
2018-05-23T08:08:35.932Z,957.82
2018-05-23T08:09:35.960Z,957.81
2018-05-23T08:10:35.984Z,957.77
2018-05-23T08:11:36.012Z,957.79
2018-05-23T08:12:36.041Z,957.8
2018-05-23T08:13:36.072Z,957.76
2018-05-23T08:14:36.095Z,957.71
2018-05-23T08:15:36.125Z,957.71
2018-05-23T08:16:36.149Z,957.69
2018-05-23T08:17:36.175Z,957.68
2018-05-23T08:18:36.202Z,957.69
2018-05-23T08:19:36.227Z,957.67
2018-05-23T08:20:36.256Z,957.65
2018-05-23T08:21:36.280Z,957.65
2018-05-23T08:22:36.308Z,957.62
2018-05-23T08:23:36.334Z,957.67
2018-05-23T08:24:36.361Z,957.66
2018-05-23T08:25:36.387Z,957.72
2018-05-23T08:26:36.411Z,957.74
2018-05-23T08:27:36.479Z,957.73
2018-05-23T08:28:36.473Z,957.75
2018-05-23T08:29:36.492Z,957.76
2018-05-23T08:30:36.520Z,957.76
2018-05-23T08:31:36.546Z,957.77
2018-05-23T08:32:36.572Z,957.74
2018-05-23T08:33:36.599Z,957.77
2018-05-23T08:34:36.776Z,957.76
2018-05-23T08:35:36.652Z,957.82
2018-05-23T08:36:36.680Z,957.82
2018-05-23T08:37:36.706Z,957.78
2018-05-23T08:38:36.731Z,957.79
2018-05-23T08:39:36.759Z,957.79
2018-05-23T08:40:36.785Z,957.86
2018-05-23T08:41:36.813Z,957.81
2018-05-23T08:42:36.839Z,957.82
2018-05-23T08:43:36.866Z,957.84
2018-05-23T08:44:36.895Z,957.83
2018-05-23T08:45:36.917Z,957.83
2018-05-23T08:46:36.945Z,957.83
2018-05-23T08:47:36.972Z,957.85
2018-05-23T08:48:36.999Z,957.82
2018-05-23T08:49:37.076Z,957.86
2018-05-23T08:50:37.048Z,957.85
2018-05-23T08:51:37.078Z,957.87
2018-05-23T08:52:37.115Z,957.84
2018-05-23T08:53:37.132Z,957.85
2018-05-23T08:54:37.158Z,957.87
2018-05-23T08:55:37.183Z,957.86
2018-05-23T08:56:37.211Z,957.83
2018-05-23T08:57:37.238Z,957.86
2018-05-23T08:58:37.262Z,957.86
2018-05-23T08:59:37.290Z,957.86
2018-05-23T09:00:37.327Z,957.82
2018-05-23T09:01:37.340Z,957.82
2018-05-23T09:02:37.371Z,957.83
2018-05-23T09:03:37.396Z,957.8
2018-05-23T09:04:37.574Z,957.81
2018-05-23T09:05:37.450Z,957.87
2018-05-23T09:06:37.477Z,957.83
2018-05-23T09:07:37.505Z,957.85
2018-05-23T09:08:37.551Z,957.83
2018-05-23T09:09:37.561Z,957.87
2018-05-23T09:10:37.585Z,957.85
2018-05-23T09:11:37.613Z,957.86
2018-05-23T09:12:37.779Z,957.84
2018-05-23T09:13:37.665Z,957.87
2018-05-23T09:14:37.745Z,957.87
2018-05-23T09:15:37.721Z,957.88
2018-05-23T09:16:37.765Z,957.92
2018-05-23T09:17:37.774Z,957.89
2018-05-23T09:18:37.802Z,957.9
2018-05-23T09:19:38.831Z,957.9
2018-05-23T09:20:37.855Z,957.89
2018-05-23T09:21:37.883Z,957.94
2018-05-23T09:22:37.909Z,957.93
2018-05-23T09:23:37.936Z,957.88
2018-05-23T09:24:37.982Z,957.92
2018-05-23T09:25:37.999Z,957.92
2018-05-23T09:26:38.021Z,957.89
2018-05-23T09:27:38.045Z,957.87
2018-05-23T09:28:38.074Z,957.85
2018-05-23T09:29:38.101Z,957.87
2018-05-23T09:30:38.131Z,957.86
2018-05-23T09:31:38.153Z,957.84
2018-05-23T09:32:38.198Z,957.85
2018-05-23T09:33:38.208Z,957.88
2018-05-23T09:34:38.235Z,957.81
2018-05-23T09:35:38.264Z,957.82
2018-05-23T09:36:38.292Z,957.8
2018-05-23T09:37:38.319Z,957.86
2018-05-23T09:38:38.347Z,957.85
2018-05-23T09:39:38.382Z,957.87
2018-05-23T09:40:38.416Z,957.85
2018-05-23T09:41:38.435Z,957.85
2018-05-23T09:42:38.455Z,957.89
2018-05-23T09:43:38.483Z,957.86
2018-05-23T09:44:38.521Z,957.85
2018-05-23T09:45:38.541Z,957.86
2018-05-23T09:46:38.568Z,957.85
2018-05-23T09:47:38.599Z,957.86
2018-05-23T09:48:38.634Z,957.9
2018-05-23T09:49:38.652Z,957.92
2018-05-23T09:50:38.683Z,957.95
2018-05-23T09:51:38.708Z,957.96
2018-05-23T09:52:38.743Z,957.91
2018-05-23T09:53:38.765Z,957.98
2018-05-23T09:54:38.794Z,957.99
2018-05-23T09:55:38.824Z,958.05
2018-05-23T09:56:38.852Z,957.97
2018-05-23T09:57:38.882Z,958.04
2018-05-23T09:58:38.913Z,958.04
2018-05-23T09:59:38.951Z,958.06
2018-05-23T10:00:38.972Z,958.06
2018-05-23T10:01:39.076Z,958.02
2018-05-23T10:02:39.033Z,958.04
2018-05-23T10:03:39.070Z,958.01
2018-05-23T10:04:39.094Z,958.03
2018-05-23T10:05:39.128Z,958.07
2018-05-23T10:06:39.158Z,958.06
2018-05-23T10:07:39.192Z,958
2018-05-23T10:08:39.220Z,957.94
2018-05-23T10:09:39.251Z,957.95
2018-05-23T10:10:39.284Z,957.97
2018-05-23T10:11:39.316Z,957.95
2018-05-23T10:12:39.347Z,957.91
2018-05-23T10:13:39.377Z,957.89
2018-05-23T10:14:39.408Z,957.88
2018-05-23T10:15:39.441Z,957.85
2018-05-23T10:16:39.472Z,957.89
2018-05-23T10:17:39.503Z,957.86
2018-05-23T10:18:39.535Z,957.87
2018-05-23T10:19:39.569Z,957.89
2018-05-23T10:20:39.598Z,957.86
2018-05-23T10:21:39.627Z,957.87
2018-05-23T10:22:39.660Z,957.87
2018-05-23T10:23:39.688Z,957.84
2018-05-23T10:24:39.719Z,957.85
2018-05-23T10:25:39.750Z,957.84
2018-05-23T10:26:39.786Z,957.86
2018-05-23T10:27:39.811Z,957.91
2018-05-23T10:28:39.843Z,957.87
2018-05-23T10:29:39.878Z,957.86
2018-05-23T10:30:39.904Z,957.88
2018-05-23T10:31:39.935Z,957.83
2018-05-23T10:32:39.968Z,957.86
2018-05-23T10:33:39.998Z,957.84
2018-05-23T10:34:40.029Z,957.8
2018-05-23T10:35:40.062Z,957.78
2018-05-23T10:36:40.092Z,957.75
2018-05-23T10:37:40.129Z,957.73
2018-05-23T10:38:40.155Z,957.74
2018-05-23T10:39:40.189Z,957.75
2018-05-23T10:40:40.219Z,957.76
2018-05-23T10:41:40.251Z,957.75
2018-05-23T10:42:40.282Z,957.74
2018-05-23T10:43:40.314Z,957.75
2018-05-23T10:44:40.341Z,957.8
2018-05-23T10:45:40.375Z,957.77
2018-05-23T10:46:40.404Z,957.78
2018-05-23T10:47:40.437Z,957.77
2018-05-23T10:48:40.465Z,957.79
2018-05-23T10:49:40.496Z,957.8
2018-05-23T10:50:40.527Z,957.76
2018-05-23T10:51:40.570Z,957.78
2018-05-23T10:52:40.591Z,957.77
2018-05-23T10:53:40.621Z,957.73
2018-05-23T10:54:40.653Z,957.78
2018-05-23T10:55:40.681Z,957.75
2018-05-23T10:56:40.713Z,957.72
2018-05-23T10:57:40.744Z,957.69
2018-05-23T10:58:40.773Z,957.7
2018-05-23T10:59:40.805Z,957.73
2018-05-23T11:00:40.840Z,957.75
2018-05-23T11:01:40.867Z,957.7
2018-05-23T11:02:40.905Z,957.76
2018-05-23T11:03:40.928Z,957.68
2018-05-23T11:04:40.959Z,957.68
2018-05-23T11:05:41.002Z,957.75
2018-05-23T11:06:41.021Z,957.8
2018-05-23T11:07:41.053Z,957.74
2018-05-23T11:08:41.084Z,957.7
2018-05-23T11:09:41.115Z,957.75
2018-05-23T11:10:41.145Z,957.76
2018-05-23T11:11:41.179Z,957.72
2018-05-23T11:12:41.209Z,957.72
2018-05-23T11:13:41.239Z,957.7
2018-05-23T11:14:41.270Z,957.79
2018-05-23T11:15:41.302Z,957.72
2018-05-23T11:16:41.333Z,957.73
2018-05-23T11:17:41.364Z,957.76
2018-05-23T11:18:41.396Z,957.7
2018-05-23T11:19:41.426Z,957.72
2018-05-23T11:20:41.457Z,957.75
2018-05-23T11:21:41.488Z,957.75
2018-05-23T11:22:41.522Z,957.68
2018-05-23T11:23:41.552Z,957.71
2018-05-23T11:24:41.584Z,957.75
2018-05-23T11:25:41.615Z,957.75
2018-05-23T11:26:41.647Z,957.77
2018-05-23T11:27:41.680Z,957.74
2018-05-23T11:28:41.707Z,957.77
2018-05-23T11:29:41.793Z,957.77
2018-05-23T11:30:41.773Z,957.74
2018-05-23T11:31:41.805Z,957.69
2018-05-23T11:32:41.838Z,957.73
2018-05-23T11:33:41.869Z,957.69
2018-05-23T11:34:41.903Z,957.72
2018-05-23T11:35:41.933Z,957.7
2018-05-23T11:36:41.964Z,957.7
2018-05-23T11:37:41.998Z,957.71
2018-05-23T11:38:42.030Z,957.74
2018-05-23T11:39:42.062Z,957.78
2018-05-23T11:40:42.096Z,957.83
2018-05-23T11:41:42.125Z,957.82
2018-05-23T11:42:42.158Z,957.77
2018-05-23T11:43:42.190Z,957.65
2018-05-23T11:44:42.220Z,957.78
2018-05-23T11:45:42.254Z,957.69
2018-05-23T11:46:42.389Z,957.66
2018-05-23T11:47:42.319Z,957.66
2018-05-23T11:48:42.356Z,957.64
2018-05-23T11:49:42.385Z,957.65
2018-05-23T11:50:42.419Z,957.61
2018-05-23T11:51:42.450Z,957.6
2018-05-23T11:52:42.487Z,957.57
2018-05-23T11:53:42.517Z,957.52
2018-05-23T11:54:42.636Z,957.51
2018-05-23T11:55:42.578Z,957.44
2018-05-23T11:56:42.610Z,957.47
2018-05-23T11:57:42.640Z,957.46
2018-05-23T11:58:42.672Z,957.48
2018-05-23T11:59:42.705Z,957.47
2018-05-23T12:00:42.738Z,957.44
2018-05-23T12:01:42.768Z,957.53
2018-05-23T12:02:42.801Z,957.61
2018-05-23T12:03:42.830Z,957.47
2018-05-23T12:04:42.862Z,957.41
2018-05-23T12:05:42.894Z,957.44
2018-05-23T12:06:42.927Z,957.61
2018-05-23T12:07:42.959Z,957.65
2018-05-23T12:08:42.990Z,957.67
2018-05-23T12:09:43.027Z,957.67
2018-05-23T12:10:43.174Z,957.65
2018-05-23T12:11:43.086Z,957.63
2018-05-23T12:12:43.118Z,957.62
2018-05-23T12:13:43.154Z,957.63
2018-05-23T12:14:43.183Z,957.66
2018-05-23T12:15:43.421Z,957.61
2018-05-23T12:16:43.248Z,957.64
2018-05-23T12:17:43.283Z,957.64
2018-05-23T12:18:43.316Z,957.6
2018-05-23T12:19:43.370Z,957.65
2018-05-23T12:20:43.381Z,957.6
2018-05-23T12:21:43.422Z,957.57
2018-05-23T12:22:43.450Z,957.58
2018-05-23T12:23:43.485Z,957.39
2018-05-23T12:24:43.524Z,957.43
2018-05-23T12:25:43.556Z,957.41
2018-05-23T12:26:43.591Z,957.52
2018-05-23T12:27:43.627Z,957.63
2018-05-23T12:28:43.661Z,957.6
2018-05-23T12:29:43.696Z,957.65
2018-05-23T12:30:43.729Z,957.6
2018-05-23T12:31:43.765Z,957.62